sensor_id;sensor_type;location;lat;lon;timestamp;P1;durP1;ratioP1;P2;durP2;ratioP2
40170;SDS011;37650;52.790;18.268;2022-09-25T00:02:33;19.00;;;16.10;;
40170;SDS011;37650;52.790;18.268;2022-09-25T00:06:26;19.50;;;16.80;;
40170;SDS011;37650;52.790;18.268;2022-09-25T00:13:56;20.00;;;15.90;;
40170;SDS011;37650;52.790;18.268;2022-09-25T00:17:23;18.30;;;14.80;;
40170;SDS011;37650;52.790;18.268;2022-09-25T00:21:44;19.90;;;15.70;;
40170;SDS011;37650;52.790;18.268;2022-09-25T00:25:56;21.70;;;16.10;;
40170;SDS011;37650;52.790;18.268;2022-09-25T00:30:08;19.40;;;17.00;;
40170;SDS011;37650;52.790;18.268;2022-09-25T00:33:51;19.80;;;16.70;;
40170;SDS011;37650;52.790;18.268;2022-09-25T00:37:48;19.40;;;16.90;;
40170;SDS011;37650;52.790;18.268;2022-09-25T00:41:12;20.50;;;17.00;;
40170;SDS011;37650;52.790;18.268;2022-09-25T00:45:22;17.90;;;15.70;;
40170;SDS011;37650;52.790;18.268;2022-09-25T00:57:17;20.50;;;17.20;;
40170;SDS011;37650;52.790;18.268;2022-09-25T01:01:12;22.00;;;17.30;;
40170;SDS011;37650;52.790;18.268;2022-09-25T01:04:49;20.20;;;18.10;;
40170;SDS011;37650;52.790;18.268;2022-09-25T01:12:52;21.90;;;18.60;;
40170;SDS011;37650;52.790;18.268;2022-09-25T01:17:16;23.00;;;18.20;;
40170;SDS011;37650;52.790;18.268;2022-09-25T01:21:29;20.70;;;15.90;;
40170;SDS011;37650;52.790;18.268;2022-09-25T01:38:54;19.30;;;17.40;;
40170;SDS011;37650;52.790;18.268;2022-09-25T01:42:51;21.40;;;17.70;;
40170;SDS011;37650;52.790;18.268;2022-09-25T01:46:54;20.40;;;17.80;;
40170;SDS011;37650;52.790;18.268;2022-09-25T01:50:46;19.60;;;17.50;;
40170;SDS011;37650;52.790;18.268;2022-09-25T01:54:31;22.00;;;19.70;;
40170;SDS011;37650;52.790;18.268;2022-09-25T01:58:19;22.10;;;19.60;;
40170;SDS011;37650;52.790;18.268;2022-09-25T02:01:44;20.80;;;18.30;;
40170;SDS011;37650;52.790;18.268;2022-09-25T02:05:17;17.50;;;15.60;;
40170;SDS011;37650;52.790;18.268;2022-09-25T02:08:42;19.60;;;17.60;;
40170;SDS011;37650;52.790;18.268;2022-09-25T02:16:39;20.00;;;17.90;;
40170;SDS011;37650;52.790;18.268;2022-09-25T02:20:58;21.20;;;19.00;;
40170;SDS011;37650;52.790;18.268;2022-09-25T02:25:09;22.00;;;19.60;;
40170;SDS011;37650;52.790;18.268;2022-09-25T02:29:18;23.50;;;20.20;;
40170;SDS011;37650;52.790;18.268;2022-09-25T02:37:51;23.30;;;20.80;;
40170;SDS011;37650;52.790;18.268;2022-09-25T02:45:46;22.70;;;19.40;;
40170;SDS011;37650;52.790;18.268;2022-09-25T02:50:10;22.60;;;20.00;;
40170;SDS011;37650;52.790;18.268;2022-09-25T02:54:29;21.70;;;19.20;;
40170;SDS011;37650;52.790;18.268;2022-09-25T02:58:48;23.80;;;21.00;;
40170;SDS011;37650;52.790;18.268;2022-09-25T03:03:10;22.40;;;20.00;;
40170;SDS011;37650;52.790;18.268;2022-09-25T03:07:05;28.50;;;21.80;;
40170;SDS011;37650;52.790;18.268;2022-09-25T03:10:41;24.60;;;21.30;;
40170;SDS011;37650;52.790;18.268;2022-09-25T03:14:25;24.30;;;21.30;;
40170;SDS011;37650;52.790;18.268;2022-09-25T03:18:28;26.20;;;23.50;;
40170;SDS011;37650;52.790;18.268;2022-09-25T03:22:12;25.40;;;21.50;;
40170;SDS011;37650;52.790;18.268;2022-09-25T03:25:53;25.10;;;21.60;;
40170;SDS011;37650;52.790;18.268;2022-09-25T03:30:10;22.50;;;20.10;;
40170;SDS011;37650;52.790;18.268;2022-09-25T03:34:19;24.80;;;22.20;;
40170;SDS011;37650;52.790;18.268;2022-09-25T03:38:34;24.10;;;21.60;;
40170;SDS011;37650;52.790;18.268;2022-09-25T03:42:45;27.10;;;23.10;;
40170;SDS011;37650;52.790;18.268;2022-09-25T03:47:16;29.90;;;23.10;;
40170;SDS011;37650;52.790;18.268;2022-09-25T03:51:27;27.60;;;22.60;;
40170;SDS011;37650;52.790;18.268;2022-09-25T03:59:30;25.20;;;21.60;;
40170;SDS011;37650;52.790;18.268;2022-09-25T04:04:06;27.80;;;22.80;;
40170;SDS011;37650;52.790;18.268;2022-09-25T04:07:55;24.70;;;22.10;;
40170;SDS011;37650;52.790;18.268;2022-09-25T04:12:16;30.30;;;26.20;;
40170;SDS011;37650;52.790;18.268;2022-09-25T04:16:23;26.00;;;23.20;;
40170;SDS011;37650;52.790;18.268;2022-09-25T04:20:25;28.30;;;25.10;;
40170;SDS011;37650;52.790;18.268;2022-09-25T04:24:49;27.30;;;24.40;;
40170;SDS011;37650;52.790;18.268;2022-09-25T04:28:50;26.30;;;23.40;;
40170;SDS011;37650;52.790;18.268;2022-09-25T04:32:39;29.10;;;26.10;;
40170;SDS011;37650;52.790;18.268;2022-09-25T04:36:41;28.20;;;25.30;;
40170;SDS011;37650;52.790;18.268;2022-09-25T04:40:08;25.10;;;22.40;;
40170;SDS011;37650;52.790;18.268;2022-09-25T04:53:03;23.00;;;20.70;;
40170;SDS011;37650;52.790;18.268;2022-09-25T04:56:30;26.60;;;23.90;;
40170;SDS011;37650;52.790;18.268;2022-09-25T05:00:02;24.80;;;22.20;;
40170;SDS011;37650;52.790;18.268;2022-09-25T05:03:27;27.80;;;25.00;;
40170;SDS011;37650;52.790;18.268;2022-09-25T05:07:09;27.90;;;24.20;;
40170;SDS011;37650;52.790;18.268;2022-09-25T05:11:35;28.50;;;25.60;;
40170;SDS011;37650;52.790;18.268;2022-09-25T05:14:58;26.00;;;23.30;;
40170;SDS011;37650;52.790;18.268;2022-09-25T05:18:22;37.70;;;25.00;;
40170;SDS011;37650;52.790;18.268;2022-09-25T05:21:43;29.30;;;23.80;;
40170;SDS011;37650;52.790;18.268;2022-09-25T05:29:17;26.10;;;23.40;;
40170;SDS011;37650;52.790;18.268;2022-09-25T05:32:59;26.60;;;23.80;;
40170;SDS011;37650;52.790;18.268;2022-09-25T05:36:21;27.50;;;24.50;;
40170;SDS011;37650;52.790;18.268;2022-09-25T05:39:53;24.20;;;21.50;;
40170;SDS011;37650;52.790;18.268;2022-09-25T05:43:19;25.90;;;22.90;;
40170;SDS011;37650;52.790;18.268;2022-09-25T05:47:43;28.70;;;25.30;;
40170;SDS011;37650;52.790;18.268;2022-09-25T06:07:49;25.70;;;22.90;;
40170;SDS011;37650;52.790;18.268;2022-09-25T06:16:04;41.30;;;33.00;;
40170;SDS011;37650;52.790;18.268;2022-09-25T06:33:32;39.50;;;31.70;;
40170;SDS011;37650;52.790;18.268;2022-09-25T06:36:52;48.20;;;38.90;;
40170;SDS011;37650;52.790;18.268;2022-09-25T06:40:13;54.80;;;38.50;;
40170;SDS011;37650;52.790;18.268;2022-09-25T06:43:34;51.30;;;41.70;;
40170;SDS011;37650;52.790;18.268;2022-09-25T06:46:55;69.20;;;48.70;;
40170;SDS011;37650;52.790;18.268;2022-09-25T06:50:29;44.40;;;39.50;;
40170;SDS011;37650;52.790;18.268;2022-09-25T06:54:32;38.70;;;34.00;;
40170;SDS011;37650;52.790;18.268;2022-09-25T06:58:55;45.10;;;37.00;;
40170;SDS011;37650;52.790;18.268;2022-09-25T07:02:24;39.00;;;34.40;;
40170;SDS011;37650;52.790;18.268;2022-09-25T07:06:05;39.50;;;32.60;;
40170;SDS011;37650;52.790;18.268;2022-09-25T07:09:26;37.40;;;33.20;;
40170;SDS011;37650;52.790;18.268;2022-09-25T07:12:52;36.50;;;27.30;;
40170;SDS011;37650;52.790;18.268;2022-09-25T07:16:25;29.70;;;25.40;;
40170;SDS011;37650;52.790;18.268;2022-09-25T07:19:46;29.60;;;26.40;;
40170;SDS011;37650;52.790;18.268;2022-09-25T07:23:08;38.00;;;28.80;;
40170;SDS011;37650;52.790;18.268;2022-09-25T07:26:29;39.20;;;29.60;;
40170;SDS011;37650;52.790;18.268;2022-09-25T07:29:50;33.70;;;29.90;;
40170;SDS011;37650;52.790;18.268;2022-09-25T07:33:12;38.70;;;33.60;;
40170;SDS011;37650;52.790;18.268;2022-09-25T07:36:32;47.40;;;41.80;;
40170;SDS011;37650;52.790;18.268;2022-09-25T07:39:55;41.90;;;37.60;;
40170;SDS011;37650;52.790;18.268;2022-09-25T07:43:24;35.90;;;31.80;;
40170;SDS011;37650;52.790;18.268;2022-09-25T07:46:45;41.90;;;36.50;;
40170;SDS011;37650;52.790;18.268;2022-09-25T07:50:17;43.60;;;39.20;;
40170;SDS011;37650;52.790;18.268;2022-09-25T07:53:38;45.20;;;38.80;;
40170;SDS011;37650;52.790;18.268;2022-09-25T08:00:45;46.30;;;38.70;;
40170;SDS011;37650;52.790;18.268;2022-09-25T08:04:17;47.20;;;34.40;;
40170;SDS011;37650;52.790;18.268;2022-09-25T08:07:38;39.10;;;34.90;;
40170;SDS011;37650;52.790;18.268;2022-09-25T08:10:59;50.00;;;44.70;;
40170;SDS011;37650;52.790;18.268;2022-09-25T08:14:21;63.30;;;57.10;;
40170;SDS011;37650;52.790;18.268;2022-09-25T08:17:42;57.90;;;51.50;;
40170;SDS011;37650;52.790;18.268;2022-09-25T08:21:03;61.70;;;55.60;;
40170;SDS011;37650;52.790;18.268;2022-09-25T08:24:24;74.60;;;66.90;;
40170;SDS011;37650;52.790;18.268;2022-09-25T08:27:54;45.90;;;41.20;;
40170;SDS011;37650;52.790;18.268;2022-09-25T08:31:21;56.90;;;51.30;;
40170;SDS011;37650;52.790;18.268;2022-09-25T08:34:43;58.10;;;51.80;;
40170;SDS011;37650;52.790;18.268;2022-09-25T08:38:06;57.70;;;51.70;;
40170;SDS011;37650;52.790;18.268;2022-09-25T08:42:03;52.90;;;47.60;;
40170;SDS011;37650;52.790;18.268;2022-09-25T08:45:25;52.40;;;47.00;;
40170;SDS011;37650;52.790;18.268;2022-09-25T08:53:42;53.90;;;48.40;;
40170;SDS011;37650;52.790;18.268;2022-09-25T08:57:29;48.30;;;43.70;;
40170;SDS011;37650;52.790;18.268;2022-09-25T09:01:15;41.10;;;36.60;;
40170;SDS011;37650;52.790;18.268;2022-09-25T09:05:35;37.60;;;32.20;;
40170;SDS011;37650;52.790;18.268;2022-09-25T09:08:38;29.10;;;25.90;;
40170;SDS011;37650;52.790;18.268;2022-09-25T09:12:49;29.90;;;26.20;;
40170;SDS011;37650;52.790;18.268;2022-09-25T09:19:21;35.50;;;29.90;;
40170;SDS011;37650;52.790;18.268;2022-09-25T09:22:55;33.10;;;27.50;;
40170;SDS011;37650;52.790;18.268;2022-09-25T09:34:57;25.00;;;22.60;;
40170;SDS011;37650;52.790;18.268;2022-09-25T09:50:34;37.30;;;33.90;;
40170;SDS011;37650;52.790;18.268;2022-09-25T09:58:27;45.60;;;41.50;;
40170;SDS011;37650;52.790;18.268;2022-09-25T10:06:26;47.30;;;43.10;;
40170;SDS011;37650;52.790;18.268;2022-09-25T10:10:16;59.80;;;54.40;;
40170;SDS011;37650;52.790;18.268;2022-09-25T10:13:42;59.30;;;53.80;;
40170;SDS011;37650;52.790;18.268;2022-09-25T10:17:04;54.90;;;49.60;;
40170;SDS011;37650;52.790;18.268;2022-09-25T10:20:44;35.60;;;32.20;;
40170;SDS011;37650;52.790;18.268;2022-09-25T10:24:09;25.90;;;23.10;;
40170;SDS011;37650;52.790;18.268;2022-09-25T10:27:52;28.30;;;25.40;;
40170;SDS011;37650;52.790;18.268;2022-09-25T10:31:28;22.70;;;20.50;;
40170;SDS011;37650;52.790;18.268;2022-09-25T10:40:00;15.20;;;13.60;;
40170;SDS011;37650;52.790;18.268;2022-09-25T10:43:53;16.60;;;15.00;;
40170;SDS011;37650;52.790;18.268;2022-09-25T11:01:56;14.30;;;12.80;;
40170;SDS011;37650;52.790;18.268;2022-09-25T11:10:24;12.90;;;11.60;;
40170;SDS011;37650;52.790;18.268;2022-09-25T11:14:35;14.00;;;11.10;;
40170;SDS011;37650;52.790;18.268;2022-09-25T11:18:43;17.20;;;11.80;;
40170;SDS011;37650;52.790;18.268;2022-09-25T11:27:16;13.70;;;11.10;;
40170;SDS011;37650;52.790;18.268;2022-09-25T11:31:08;12.70;;;10.10;;
40170;SDS011;37650;52.790;18.268;2022-09-25T11:48:20;14.90;;;12.90;;
40170;SDS011;37650;52.790;18.268;2022-09-25T11:52:33;22.90;;;17.40;;
40170;SDS011;37650;52.790;18.268;2022-09-25T12:09:47;19.70;;;17.50;;
40170;SDS011;37650;52.790;18.268;2022-09-25T12:56:12;16.90;;;15.00;;
40170;SDS011;37650;52.790;18.268;2022-09-25T12:59:36;16.80;;;15.00;;
40170;SDS011;37650;52.790;18.268;2022-09-25T13:52:26;18.30;;;15.20;;
40170;SDS011;37650;52.790;18.268;2022-09-25T14:02:37;12.40;;;11.10;;
40170;SDS011;37650;52.790;18.268;2022-09-25T14:06:02;12.80;;;11.00;;
40170;SDS011;37650;52.790;18.268;2022-09-25T14:20:56;12.50;;;11.20;;
40170;SDS011;37650;52.790;18.268;2022-09-25T14:24:25;13.20;;;11.00;;
40170;SDS011;37650;52.790;18.268;2022-09-25T14:27:50;11.70;;;10.50;;
40170;SDS011;37650;52.790;18.268;2022-09-25T14:31:15;12.60;;;10.90;;
40170;SDS011;37650;52.790;18.268;2022-09-25T14:34:50;14.00;;;12.00;;
40170;SDS011;37650;52.790;18.268;2022-09-25T14:50:03;12.20;;;10.00;;
40170;SDS011;37650;52.790;18.268;2022-09-25T14:55:11;15.40;;;11.50;;
40170;SDS011;37650;52.790;18.268;2022-09-25T15:03:43;13.50;;;11.10;;
40170;SDS011;37650;52.790;18.268;2022-09-25T15:11:23;12.30;;;9.20;;
40170;SDS011;37650;52.790;18.268;2022-09-25T15:19:20;14.90;;;9.80;;
40170;SDS011;37650;52.790;18.268;2022-09-25T15:23:30;12.00;;;9.60;;
40170;SDS011;37650;52.790;18.268;2022-09-25T15:27:05;12.80;;;10.40;;
40170;SDS011;37650;52.790;18.268;2022-09-25T15:30:30;13.70;;;11.90;;
40170;SDS011;37650;52.790;18.268;2022-09-25T15:34:11;15.00;;;11.40;;
40170;SDS011;37650;52.790;18.268;2022-09-25T15:37:33;13.30;;;10.10;;
40170;SDS011;37650;52.790;18.268;2022-09-25T15:40:55;13.00;;;9.00;;
40170;SDS011;37650;52.790;18.268;2022-09-25T15:44:28;11.90;;;8.80;;
40170;SDS011;37650;52.790;18.268;2022-09-25T15:47:52;14.90;;;10.20;;
40170;SDS011;37650;52.790;18.268;2022-09-25T15:51:17;12.10;;;9.40;;
40170;SDS011;37650;52.790;18.268;2022-09-25T15:54:52;16.90;;;12.00;;
40170;SDS011;37650;52.790;18.268;2022-09-25T16:01:35;12.80;;;11.30;;
40170;SDS011;37650;52.790;18.268;2022-09-25T16:05:21;13.70;;;11.00;;
40170;SDS011;37650;52.790;18.268;2022-09-25T16:08:44;25.20;;;22.50;;
40170;SDS011;37650;52.790;18.268;2022-09-25T16:15:44;22.60;;;16.40;;
40170;SDS011;37650;52.790;18.268;2022-09-25T16:22:46;20.60;;;16.30;;
40170;SDS011;37650;52.790;18.268;2022-09-25T16:26:14;18.00;;;14.10;;
40170;SDS011;37650;52.790;18.268;2022-09-25T16:29:37;20.70;;;14.20;;
40170;SDS011;37650;52.790;18.268;2022-09-25T16:33:03;18.90;;;13.90;;
40170;SDS011;37650;52.790;18.268;2022-09-25T16:36:24;23.80;;;18.30;;
40170;SDS011;37650;52.790;18.268;2022-09-25T16:40:17;30.10;;;23.20;;
40170;SDS011;37650;52.790;18.268;2022-09-25T16:43:34;32.50;;;23.00;;
40170;SDS011;37650;52.790;18.268;2022-09-25T16:50:32;43.60;;;33.30;;
40170;SDS011;37650;52.790;18.268;2022-09-25T16:54:01;32.60;;;24.40;;
40170;SDS011;37650;52.790;18.268;2022-09-25T16:57:23;29.00;;;24.30;;
40170;SDS011;37650;52.790;18.268;2022-09-25T17:00:47;30.50;;;23.20;;
40170;SDS011;37650;52.790;18.268;2022-09-25T17:04:09;33.80;;;22.70;;
40170;SDS011;37650;52.790;18.268;2022-09-25T17:07:36;31.70;;;22.10;;
40170;SDS011;37650;52.790;18.268;2022-09-25T17:11:12;26.20;;;20.00;;
40170;SDS011;37650;52.790;18.268;2022-09-25T17:14:42;22.10;;;18.70;;
40170;SDS011;37650;52.790;18.268;2022-09-25T17:18:35;23.60;;;19.30;;
40170;SDS011;37650;52.790;18.268;2022-09-25T17:22:08;25.10;;;20.10;;
40170;SDS011;37650;52.790;18.268;2022-09-25T17:25:49;26.40;;;21.20;;
40170;SDS011;37650;52.790;18.268;2022-09-25T17:29:12;28.10;;;21.50;;
40170;SDS011;37650;52.790;18.268;2022-09-25T17:32:49;29.70;;;22.80;;
40170;SDS011;37650;52.790;18.268;2022-09-25T17:36:48;33.50;;;24.50;;
40170;SDS011;37650;52.790;18.268;2022-09-25T17:40:10;32.30;;;24.80;;
40170;SDS011;37650;52.790;18.268;2022-09-25T17:46:54;31.50;;;27.20;;
40170;SDS011;37650;52.790;18.268;2022-09-25T17:50:16;37.50;;;29.10;;
40170;SDS011;37650;52.790;18.268;2022-09-25T17:53:42;40.20;;;29.20;;
40170;SDS011;37650;52.790;18.268;2022-09-25T18:06:04;39.80;;;29.30;;
40170;SDS011;37650;52.790;18.268;2022-09-25T18:14:23;37.30;;;29.60;;
40170;SDS011;37650;52.790;18.268;2022-09-25T18:23:26;47.20;;;36.90;;
40170;SDS011;37650;52.790;18.268;2022-09-25T18:32:49;92.80;;;63.30;;
40170;SDS011;37650;52.790;18.268;2022-09-25T18:36:58;139.60;;;86.40;;
40170;SDS011;37650;52.790;18.268;2022-09-25T18:41:25;75.20;;;50.30;;
40170;SDS011;37650;52.790;18.268;2022-09-25T18:44:54;56.20;;;41.50;;
40170;SDS011;37650;52.790;18.268;2022-09-25T18:48:44;54.50;;;37.80;;
40170;SDS011;37650;52.790;18.268;2022-09-25T18:56:39;45.20;;;36.60;;
40170;SDS011;37650;52.790;18.268;2022-09-25T19:09:02;56.10;;;45.90;;
40170;SDS011;37650;52.790;18.268;2022-09-25T19:13:33;63.50;;;50.00;;
40170;SDS011;37650;52.790;18.268;2022-09-25T19:20:19;87.70;;;64.60;;
40170;SDS011;37650;52.790;18.268;2022-09-25T19:23:43;76.20;;;53.70;;
40170;SDS011;37650;52.790;18.268;2022-09-25T19:27:10;63.90;;;50.70;;
40170;SDS011;37650;52.790;18.268;2022-09-25T19:30:33;66.40;;;51.10;;
40170;SDS011;37650;52.790;18.268;2022-09-25T19:33:57;62.50;;;46.90;;
40170;SDS011;37650;52.790;18.268;2022-09-25T19:37:21;69.70;;;50.70;;
40170;SDS011;37650;52.790;18.268;2022-09-25T19:40:47;64.50;;;50.20;;
40170;SDS011;37650;52.790;18.268;2022-09-25T19:44:11;67.90;;;51.40;;
40170;SDS011;37650;52.790;18.268;2022-09-25T19:47:43;69.00;;;48.30;;
40170;SDS011;37650;52.790;18.268;2022-09-25T19:51:21;70.50;;;51.30;;
40170;SDS011;37650;52.790;18.268;2022-09-25T19:54:42;67.10;;;52.40;;
40170;SDS011;37650;52.790;18.268;2022-09-25T19:58:12;67.00;;;50.10;;
40170;SDS011;37650;52.790;18.268;2022-09-25T20:01:34;70.20;;;51.50;;
40170;SDS011;37650;52.790;18.268;2022-09-25T20:04:55;80.50;;;57.50;;
40170;SDS011;37650;52.790;18.268;2022-09-25T20:08:25;81.40;;;58.20;;
40170;SDS011;37650;52.790;18.268;2022-09-25T20:11:51;64.50;;;48.90;;
40170;SDS011;37650;52.790;18.268;2022-09-25T20:15:26;61.50;;;46.60;;
40170;SDS011;37650;52.790;18.268;2022-09-25T20:19:14;69.70;;;50.40;;
40170;SDS011;37650;52.790;18.268;2022-09-25T20:22:42;68.20;;;53.10;;
40170;SDS011;37650;52.790;18.268;2022-09-25T20:26:35;73.60;;;56.70;;
40170;SDS011;37650;52.790;18.268;2022-09-25T20:30:13;61.80;;;47.50;;
40170;SDS011;37650;52.790;18.268;2022-09-25T20:34:05;57.80;;;46.70;;
40170;SDS011;37650;52.790;18.268;2022-09-25T20:37:29;57.70;;;47.90;;
40170;SDS011;37650;52.790;18.268;2022-09-25T20:41:11;83.10;;;61.90;;
40170;SDS011;37650;52.790;18.268;2022-09-25T20:44:44;69.20;;;54.50;;
40170;SDS011;37650;52.790;18.268;2022-09-25T20:48:11;58.70;;;48.70;;
40170;SDS011;37650;52.790;18.268;2022-09-25T20:51:33;61.70;;;49.80;;
40170;SDS011;37650;52.790;18.268;2022-09-25T20:55:07;56.10;;;45.90;;
40170;SDS011;37650;52.790;18.268;2022-09-25T20:58:30;53.50;;;45.60;;
40170;SDS011;37650;52.790;18.268;2022-09-25T21:02:14;58.10;;;47.50;;
40170;SDS011;37650;52.790;18.268;2022-09-25T21:05:39;55.30;;;46.90;;
40170;SDS011;37650;52.790;18.268;2022-09-25T21:09:11;56.40;;;47.40;;
40170;SDS011;37650;52.790;18.268;2022-09-25T21:12:43;54.70;;;44.40;;
40170;SDS011;37650;52.790;18.268;2022-09-25T21:16:20;52.10;;;44.60;;
40170;SDS011;37650;52.790;18.268;2022-09-25T21:19:43;57.00;;;49.50;;
40170;SDS011;37650;52.790;18.268;2022-09-25T21:23:06;57.20;;;45.30;;
40170;SDS011;37650;52.790;18.268;2022-09-25T21:26:33;56.30;;;48.40;;
40170;SDS011;37650;52.790;18.268;2022-09-25T21:29:58;53.70;;;46.00;;
40170;SDS011;37650;52.790;18.268;2022-09-25T21:33:54;55.00;;;48.80;;
40170;SDS011;37650;52.790;18.268;2022-09-25T21:37:36;59.70;;;49.70;;
40170;SDS011;37650;52.790;18.268;2022-09-25T21:40:58;57.10;;;48.50;;
40170;SDS011;37650;52.790;18.268;2022-09-25T21:44:25;62.00;;;49.70;;
40170;SDS011;37650;52.790;18.268;2022-09-25T21:47:49;60.80;;;50.40;;
40170;SDS011;37650;52.790;18.268;2022-09-25T21:51:20;62.80;;;50.80;;
40170;SDS011;37650;52.790;18.268;2022-09-25T21:54:47;76.00;;;56.90;;
40170;SDS011;37650;52.790;18.268;2022-09-25T21:58:10;98.20;;;66.40;;
40170;SDS011;37650;52.790;18.268;2022-09-25T22:01:32;51.60;;;42.80;;
40170;SDS011;37650;52.790;18.268;2022-09-25T22:04:55;61.10;;;42.10;;
40170;SDS011;37650;52.790;18.268;2022-09-25T22:08:21;43.90;;;36.50;;
40170;SDS011;37650;52.790;18.268;2022-09-25T22:11:43;55.00;;;44.60;;
40170;SDS011;37650;52.790;18.268;2022-09-25T22:15:06;51.50;;;42.90;;
40170;SDS011;37650;52.790;18.268;2022-09-25T22:18:31;48.60;;;41.40;;
40170;SDS011;37650;52.790;18.268;2022-09-25T22:21:55;50.80;;;43.80;;
40170;SDS011;37650;52.790;18.268;2022-09-25T22:25:20;51.30;;;44.10;;
40170;SDS011;37650;52.790;18.268;2022-09-25T22:28:43;49.10;;;42.40;;
40170;SDS011;37650;52.790;18.268;2022-09-25T22:32:12;53.80;;;42.90;;
40170;SDS011;37650;52.790;18.268;2022-09-25T22:35:33;50.80;;;41.30;;
40170;SDS011;37650;52.790;18.268;2022-09-25T22:38:54;48.30;;;41.70;;
40170;SDS011;37650;52.790;18.268;2022-09-25T22:42:15;45.30;;;38.40;;
40170;SDS011;37650;52.790;18.268;2022-09-25T22:45:36;46.50;;;38.20;;
40170;SDS011;37650;52.790;18.268;2022-09-25T22:48:57;47.70;;;39.10;;
40170;SDS011;37650;52.790;18.268;2022-09-25T22:52:21;43.50;;;36.20;;
40170;SDS011;37650;52.790;18.268;2022-09-25T22:55:42;40.20;;;35.90;;
40170;SDS011;37650;52.790;18.268;2022-09-25T22:59:04;40.60;;;36.00;;
40170;SDS011;37650;52.790;18.268;2022-09-25T23:02:25;41.50;;;36.80;;
40170;SDS011;37650;52.790;18.268;2022-09-25T23:05:46;41.10;;;36.10;;
40170;SDS011;37650;52.790;18.268;2022-09-25T23:09:09;43.30;;;36.60;;
40170;SDS011;37650;52.790;18.268;2022-09-25T23:12:31;39.80;;;35.50;;
40170;SDS011;37650;52.790;18.268;2022-09-25T23:15:55;42.90;;;35.60;;
40170;SDS011;37650;52.790;18.268;2022-09-25T23:19:16;42.30;;;36.10;;
40170;SDS011;37650;52.790;18.268;2022-09-25T23:22:37;43.50;;;37.40;;
40170;SDS011;37650;52.790;18.268;2022-09-25T23:26:02;40.80;;;36.40;;
40170;SDS011;37650;52.790;18.268;2022-09-25T23:29:25;43.40;;;37.20;;
40170;SDS011;37650;52.790;18.268;2022-09-25T23:32:49;43.70;;;37.00;;
40170;SDS011;37650;52.790;18.268;2022-09-25T23:36:11;40.70;;;35.50;;
40170;SDS011;37650;52.790;18.268;2022-09-25T23:39:32;40.90;;;35.40;;
40170;SDS011;37650;52.790;18.268;2022-09-25T23:42:53;41.40;;;34.50;;
40170;SDS011;37650;52.790;18.268;2022-09-25T23:46:14;39.10;;;35.00;;
40170;SDS011;37650;52.790;18.268;2022-09-25T23:49:36;41.10;;;36.80;;
40170;SDS011;37650;52.790;18.268;2022-09-25T23:52:57;38.30;;;33.80;;
40170;SDS011;37650;52.790;18.268;2022-09-25T23:56:19;38.80;;;34.60;;
40170;SDS011;37650;52.790;18.268;2022-09-25T23:59:41;38.30;;;34.20;;
